sensor_id;sensor_type;location;lat;lon;timestamp;pressure;altitude;pressure_sealevel;temperature;humidity
47710;BME280;33473;51.640;5.892;2022-11-20T00:03:06;101200;;;3.2;51.0
47710;BME280;33473;51.640;5.892;2022-11-20T00:16:26;101200;;;3.1;51.0
47710;BME280;33473;51.640;5.892;2022-11-20T00:29:47;101200;;;3.0;51.0
47710;BME280;33473;51.640;5.892;2022-11-20T00:43:07;101200;;;3.0;51.0
47710;BME280;33473;51.640;5.892;2022-11-20T00:56:27;101200;;;3.0;52.0
47710;BME280;33473;51.640;5.892;2022-11-20T01:09:48;101200;;;2.9;52.0
47710;BME280;33473;51.640;5.892;2022-11-20T01:23:08;101200;;;2.8;52.0
47710;BME280;33473;51.640;5.892;2022-11-20T01:36:28;101200;;;2.8;52.0
47710;BME280;33473;51.640;5.892;2022-11-20T01:49:49;101200;;;2.7;52.0
47710;BME280;33473;51.640;5.892;2022-11-20T02:03:09;101200;;;2.7;52.0
47710;BME280;33473;51.640;5.892;2022-11-20T02:16:29;101100;;;2.5;51.0
47710;BME280;33473;51.640;5.892;2022-11-20T02:29:50;101200;;;2.4;52.0
47710;BME280;33473;51.640;5.892;2022-11-20T02:43:10;101100;;;2.4;52.0
47710;BME280;33473;51.640;5.892;2022-11-20T02:56:31;101100;;;2.4;52.0
47710;BME280;33473;51.640;5.892;2022-11-20T03:09:51;101200;;;2.4;52.0
47710;BME280;33473;51.640;5.892;2022-11-20T03:23:12;101100;;;2.3;52.0
47710;BME280;33473;51.640;5.892;2022-11-20T03:36:32;101100;;;2.2;51.0
47710;BME280;33473;51.640;5.892;2022-11-20T03:49:53;101100;;;2.1;51.0
47710;BME280;33473;51.640;5.892;2022-11-20T04:03:13;101100;;;2.0;51.0
47710;BME280;33473;51.640;5.892;2022-11-20T04:16:33;101100;;;1.8;51.0
47710;BME280;33473;51.640;5.892;2022-11-20T04:29:54;101100;;;1.7;51.0
47710;BME280;33473;51.640;5.892;2022-11-20T04:43:14;101100;;;1.7;52.0
47710;BME280;33473;51.640;5.892;2022-11-20T04:56:34;101100;;;1.7;52.0
47710;BME280;33473;51.640;5.892;2022-11-20T05:09:54;101100;;;1.7;52.0
47710;BME280;33473;51.640;5.892;2022-11-20T05:23:15;101100;;;1.7;52.0
47710;BME280;33473;51.640;5.892;2022-11-20T05:36:35;101100;;;1.6;52.0
47710;BME280;33473;51.640;5.892;2022-11-20T05:49:57;101100;;;1.7;52.0
47710;BME280;33473;51.640;5.892;2022-11-20T06:03:17;101100;;;1.7;52.0
47710;BME280;33473;51.640;5.892;2022-11-20T06:16:38;101100;;;1.7;52.0
47710;BME280;33473;51.640;5.892;2022-11-20T06:29:57;101100;;;1.6;52.0
47710;BME280;33473;51.640;5.892;2022-11-20T06:43:18;101100;;;1.6;52.0
47710;BME280;33473;51.640;5.892;2022-11-20T06:56:38;101100;;;1.5;52.0
47710;BME280;33473;51.640;5.892;2022-11-20T07:09:58;101100;;;1.5;51.0
47710;BME280;33473;51.640;5.892;2022-11-20T07:23:18;101100;;;1.5;52.0
47710;BME280;33473;51.640;5.892;2022-11-20T07:36:39;101100;;;1.6;51.0
47710;BME280;33473;51.640;5.892;2022-11-20T07:49:59;101100;;;1.7;52.0
47710;BME280;33473;51.640;5.892;2022-11-20T08:03:19;101100;;;2.3;53.0
47710;BME280;33473;51.640;5.892;2022-11-20T08:16:39;101100;;;2.9;53.0
47710;BME280;33473;51.640;5.892;2022-11-20T08:30:00;101100;;;3.4;54.0
47710;BME280;33473;51.640;5.892;2022-11-20T08:43:20;101000;;;4.0;54.0
47710;BME280;33473;51.640;5.892;2022-11-20T08:56:40;101100;;;4.6;54.0
47710;BME280;33473;51.640;5.892;2022-11-20T09:10:01;101000;;;5.0;54.0
47710;BME280;33473;51.640;5.892;2022-11-20T09:23:21;101000;;;5.4;54.0
47710;BME280;33473;51.640;5.892;2022-11-20T09:36:42;101000;;;5.8;54.0
47710;BME280;33473;51.640;5.892;2022-11-20T09:50:02;101000;;;6.2;54.0
47710;BME280;33473;51.640;5.892;2022-11-20T10:03:22;101000;;;6.6;54.0
47710;BME280;33473;51.640;5.892;2022-11-20T10:16:43;101000;;;6.9;54.0
47710;BME280;33473;51.640;5.892;2022-11-20T10:30:03;101000;;;7.3;53.0
47710;BME280;33473;51.640;5.892;2022-11-20T10:43:23;100900;;;7.6;53.0
47710;BME280;33473;51.640;5.892;2022-11-20T10:56:43;100900;;;8.0;53.0
47710;BME280;33473;51.640;5.892;2022-11-20T11:10:04;100900;;;8.2;52.0
47710;BME280;33473;51.640;5.892;2022-11-20T11:23:24;100900;;;8.5;53.0
47710;BME280;33473;51.640;5.892;2022-11-20T11:36:44;100800;;;8.8;52.0
47710;BME280;33473;51.640;5.892;2022-11-20T11:50:04;100800;;;9.1;52.0
47710;BME280;33473;51.640;5.892;2022-11-20T12:03:25;100800;;;9.4;52.0
47710;BME280;33473;51.640;5.892;2022-11-20T12:16:45;100800;;;9.4;52.0
47710;BME280;33473;51.640;5.892;2022-11-20T12:30:05;100800;;;9.5;53.0
47710;BME280;33473;51.640;5.892;2022-11-20T12:43:25;100700;;;9.6;53.0
47710;BME280;33473;51.640;5.892;2022-11-20T12:56:46;100700;;;9.6;53.0
47710;BME280;33473;51.640;5.892;2022-11-20T13:10:06;100700;;;9.6;53.0
47710;BME280;33473;51.640;5.892;2022-11-20T13:23:26;100600;;;9.7;54.0
47710;BME280;33473;51.640;5.892;2022-11-20T13:36:47;100600;;;9.8;54.0
47710;BME280;33473;51.640;5.892;2022-11-20T13:50:07;100600;;;9.9;54.0
47710;BME280;33473;51.640;5.892;2022-11-20T14:03:27;100600;;;10.0;54.0
47710;BME280;33473;51.640;5.892;2022-11-20T14:16:47;100500;;;10.0;54.0
47710;BME280;33473;51.640;5.892;2022-11-20T14:30:07;100500;;;9.9;54.0
47710;BME280;33473;51.640;5.892;2022-11-20T14:43:28;100500;;;10.1;55.0
47710;BME280;33473;51.640;5.892;2022-11-20T14:56:48;100500;;;10.1;55.0
47710;BME280;33473;51.640;5.892;2022-11-20T15:10:08;100400;;;10.1;55.0
47710;BME280;33473;51.640;5.892;2022-11-20T15:23:29;100400;;;10.1;55.0
47710;BME280;33473;51.640;5.892;2022-11-20T15:36:49;100400;;;10.1;56.0
47710;BME280;33473;51.640;5.892;2022-11-20T15:50:10;100400;;;10.2;56.0
47710;BME280;33473;51.640;5.892;2022-11-20T16:03:30;100400;;;10.3;56.0
47710;BME280;33473;51.640;5.892;2022-11-20T16:16:51;100300;;;10.2;56.0
47710;BME280;33473;51.640;5.892;2022-11-20T16:30:11;100300;;;10.2;57.0
47710;BME280;33473;51.640;5.892;2022-11-20T16:43:32;100300;;;10.3;57.0
47710;BME280;33473;51.640;5.892;2022-11-20T16:56:52;100200;;;10.3;57.0
47710;BME280;33473;51.640;5.892;2022-11-20T17:10:13;100200;;;10.5;57.0
47710;BME280;33473;51.640;5.892;2022-11-20T17:23:33;100200;;;10.6;57.0
47710;BME280;33473;51.640;5.892;2022-11-20T17:36:54;100200;;;10.7;57.0
47710;BME280;33473;51.640;5.892;2022-11-20T17:50:14;100100;;;10.8;57.0
47710;BME280;33473;51.640;5.892;2022-11-20T18:03:35;100100;;;10.8;58.0
47710;BME280;33473;51.640;5.892;2022-11-20T18:16:55;100100;;;11.0;58.0
47710;BME280;33473;51.640;5.892;2022-11-20T18:30:15;100100;;;11.2;58.0
47710;BME280;33473;51.640;5.892;2022-11-20T18:43:36;100100;;;11.2;58.0
47710;BME280;33473;51.640;5.892;2022-11-20T18:56:56;100100;;;11.1;60.0
47710;BME280;33473;51.640;5.892;2022-11-20T19:10:16;100100;;;10.8;62.0
47710;BME280;33473;51.640;5.892;2022-11-20T19:23:37;100100;;;10.4;64.0
47710;BME280;33473;51.640;5.892;2022-11-20T19:36:57;100200;;;10.1;63.0
47710;BME280;33473;51.640;5.892;2022-11-20T19:50:18;100200;;;9.8;64.0
47710;BME280;33473;51.640;5.892;2022-11-20T20:03:38;100200;;;10.0;63.0
47710;BME280;33473;51.640;5.892;2022-11-20T20:16:58;100200;;;10.0;61.0
47710;BME280;33473;51.640;5.892;2022-11-20T20:30:18;100300;;;10.1;61.0
47710;BME280;33473;51.640;5.892;2022-11-20T20:43:39;100300;;;9.9;60.0
47710;BME280;33473;51.640;5.892;2022-11-20T20:56:59;100300;;;9.6;60.0
47710;BME280;33473;51.640;5.892;2022-11-20T21:10:19;100300;;;10.0;59.0
47710;BME280;33473;51.640;5.892;2022-11-20T21:23:40;100300;;;9.6;60.0
47710;BME280;33473;51.640;5.892;2022-11-20T21:37:00;100300;;;9.7;59.0
47710;BME280;33473;51.640;5.892;2022-11-20T21:50:20;100300;;;9.9;59.0
47710;BME280;33473;51.640;5.892;2022-11-20T22:03:41;100300;;;10.0;58.0
47710;BME280;33473;51.640;5.892;2022-11-20T22:17:01;100300;;;9.9;58.0
47710;BME280;33473;51.640;5.892;2022-11-20T22:30:21;100300;;;10.1;57.0
47710;BME280;33473;51.640;5.892;2022-11-20T22:43:41;100400;;;9.9;57.0
47710;BME280;33473;51.640;5.892;2022-11-20T22:57:01;100400;;;10.1;57.0
47710;BME280;33473;51.640;5.892;2022-11-20T23:10:22;100400;;;10.1;57.0
47710;BME280;33473;51.640;5.892;2022-11-20T23:23:42;100400;;;10.0;56.0
47710;BME280;33473;51.640;5.892;2022-11-20T23:37:02;100400;;;10.0;56.0
47710;BME280;33473;51.640;5.892;2022-11-20T23:50:22;100400;;;10.1;56.0
